createdAt,value
2018-05-09T00:01:19.185Z,99223.02
2018-05-09T00:05:21.658Z,99215.52
2018-05-09T00:09:24.131Z,99218.25
2018-05-09T00:13:26.858Z,99206.84
2018-05-09T00:17:29.108Z,99212.16
2018-05-09T00:21:31.560Z,99209.93
2018-05-09T00:25:34.046Z,99201.55
2018-05-09T00:29:36.530Z,99192.30
2018-05-09T00:33:39.004Z,99183.48
2018-05-09T00:37:41.482Z,99184.38
2018-05-09T00:41:43.950Z,99177.00
2018-05-09T00:45:46.434Z,99169.97
2018-05-09T00:49:48.908Z,99174.45
2018-05-09T00:53:51.363Z,99174.05
2018-05-09T00:57:53.848Z,99176.70
2018-05-09T01:01:56.385Z,99180.78
2018-05-09T01:05:58.850Z,99181.28
2018-05-09T01:10:01.330Z,99183.97
2018-05-09T01:14:03.831Z,99186.25
2018-05-09T01:18:06.283Z,99176.65
2018-05-09T01:22:08.763Z,99179.33
2018-05-09T01:26:11.246Z,99179.40
2018-05-09T01:30:14.027Z,99171.95
2018-05-09T01:34:16.508Z,99172.34
2018-05-09T01:38:18.968Z,99180.33
2018-05-09T01:42:21.466Z,99177.28
2018-05-09T01:46:23.922Z,99171.12
2018-05-09T01:50:26.419Z,99175.03
2018-05-09T01:54:28.914Z,99180.30
2018-05-09T01:58:31.393Z,99166.15
2018-05-09T02:02:33.878Z,99152.90
2018-05-09T02:06:36.683Z,99145.41
2018-05-09T02:10:39.156Z,99140.15
2018-05-09T02:14:41.639Z,99138.42
2018-05-09T02:18:44.129Z,99140.25
2018-05-09T02:22:46.614Z,99142.53
2018-05-09T02:26:49.094Z,99146.61
2018-05-09T02:30:51.540Z,99135.65
2018-05-09T02:34:54.017Z,99136.55
2018-05-09T02:38:56.496Z,99137.50
2018-05-09T02:42:58.980Z,99130.91
2018-05-09T02:47:01.498Z,99142.47
2018-05-09T02:51:03.953Z,99143.36
2018-05-09T02:55:06.437Z,99142.53
2018-05-09T02:59:08.884Z,99142.56
2018-05-09T03:03:11.366Z,99137.30
2018-05-09T03:07:13.913Z,99145.31
2018-05-09T03:11:16.403Z,99140.48
2018-05-09T03:15:18.888Z,99145.44
2018-05-09T03:19:21.351Z,99138.82
2018-05-09T03:23:23.877Z,99145.44
2018-05-09T03:27:26.352Z,99144.11
2018-05-09T03:31:28.895Z,99157.39
2018-05-09T03:35:31.391Z,99145.11
2018-05-09T03:39:33.896Z,99150.03
2018-05-09T03:43:36.396Z,99153.57
2018-05-09T03:47:38.880Z,99165.06
2018-05-09T03:51:41.367Z,99165.95
2018-05-09T03:55:43.893Z,99172.63
2018-05-09T03:59:46.659Z,99169.98
2018-05-09T04:04:01.010Z,99167.80
2018-05-09T04:08:15.274Z,99174.88
2018-05-09T04:12:17.773Z,99180.63
2018-05-09T04:16:20.251Z,99164.84
2018-05-09T04:20:22.744Z,99155.14
2018-05-09T04:24:26.239Z,99159.95
2018-05-09T04:28:28.722Z,99166.50
2018-05-09T04:32:31.189Z,99157.64
2018-05-09T04:36:33.687Z,99156.25
2018-05-09T04:40:36.171Z,99161.42
2018-05-09T04:44:38.665Z,99167.95
2018-05-09T04:48:41.160Z,99177.06
2018-05-09T04:52:43.663Z,99182.23
2018-05-09T04:56:46.160Z,99186.48
2018-05-09T05:00:48.659Z,99186.84
2018-05-09T05:04:51.161Z,99182.34
2018-05-09T05:08:53.646Z,99179.13
2018-05-09T05:12:56.140Z,99176.16
2018-05-09T05:16:58.628Z,99173.20
2018-05-09T05:21:01.165Z,99179.33
2018-05-09T05:25:03.658Z,99186.03
2018-05-09T05:29:08.771Z,99176.08
2018-05-09T05:33:11.651Z,99175.74
2018-05-09T05:37:14.352Z,99168.64
2018-05-09T05:41:16.977Z,99174.83
2018-05-09T05:45:19.771Z,99174.94
2018-05-09T06:54:14.796Z,99186.00
2018-05-09T06:58:17.602Z,99187.20
2018-05-09T07:02:20.284Z,99179.20
2018-05-09T07:06:23.193Z,99186.95
2018-05-09T07:10:30.358Z,99194.05
2018-05-09T07:14:33.027Z,99189.98
2018-05-09T07:18:35.692Z,99192.45
2018-05-09T07:22:38.519Z,99187.47
2018-05-09T07:26:41.188Z,99189.94
2018-05-09T07:30:43.852Z,99194.55
2018-05-09T07:34:46.627Z,99188.42
2018-05-09T07:38:49.245Z,99195.45
2018-05-09T07:42:52.049Z,99188.33
2018-05-09T07:46:54.820Z,99185.57
2018-05-09T07:50:57.471Z,99182.62
2018-05-09T07:55:00.237Z,99186.02
2018-05-09T07:59:02.812Z,99181.33
2018-05-09T08:03:05.398Z,99178.93
2018-05-09T08:07:07.929Z,99187.55
2018-05-09T08:11:10.651Z,99181.09
2018-05-09T08:15:13.313Z,99186.01
2018-05-09T08:19:22.819Z,99193.77
2018-05-09T08:23:25.326Z,99190.42
2018-05-09T08:27:28.100Z,99189.36
2018-05-09T08:31:30.809Z,99195.27
2018-05-09T08:35:33.489Z,99176.27
2018-05-09T08:39:36.169Z,99176.55
2018-05-09T08:43:38.959Z,99174.03
2018-05-09T08:47:41.705Z,99172.56
2018-05-09T08:51:44.688Z,99173.67
2018-05-09T08:55:47.452Z,99171.19
2018-05-09T08:59:50.159Z,99162.34
2018-05-09T09:03:53.177Z,99162.64
2018-05-09T09:07:55.919Z,99165.91
2018-05-09T09:11:58.733Z,99172.32
2018-05-09T09:16:01.540Z,99162.30
2018-05-09T09:20:06.240Z,99158.91
2018-05-09T09:24:08.951Z,99161.42
2018-05-09T09:28:11.700Z,99158.16
2018-05-09T09:32:14.377Z,99154.71
2018-05-09T09:36:17.016Z,99154.58
2018-05-09T10:40:30.279Z,99120.41
2018-05-09T10:44:32.824Z,99119.71
2018-05-09T10:48:35.369Z,99116.41
2018-05-09T10:52:37.947Z,99119.19
2018-05-09T11:05:45.743Z,99115.27
2018-05-09T11:09:54.677Z,99101.41
2018-05-09T11:13:57.179Z,99088.75
2018-05-09T11:17:59.719Z,99085.28
2018-05-09T11:22:02.263Z,99086.77
2018-05-09T11:26:04.797Z,99078.68
2018-05-09T11:30:09.313Z,99076.20
2018-05-09T11:34:11.841Z,99069.23
2018-05-09T11:38:14.349Z,99063.87
2018-05-09T11:42:16.871Z,99060.75
2018-05-09T11:46:19.384Z,99053.66
2018-05-09T11:50:22.748Z,99039.00
2018-05-09T11:54:25.247Z,99042.38
2018-05-09T11:58:27.756Z,99030.97
2018-05-09T12:02:30.303Z,99022.66
2018-05-09T12:06:32.756Z,99021.52
2018-05-09T12:10:35.422Z,99021.42
2018-05-09T12:14:37.807Z,99011.83
2018-05-09T12:28:02.217Z,99004.72
2018-05-09T12:32:04.755Z,99002.97
2018-05-09T12:36:07.262Z,99001.82
2018-05-09T12:49:27.733Z,98967.99
2018-05-09T12:53:30.261Z,98957.24
2018-05-09T12:57:32.773Z,98953.37
2018-05-09T13:01:35.231Z,98957.05
2018-05-09T13:05:37.722Z,98971.59
2018-05-09T13:09:40.265Z,98980.42
2018-05-09T13:13:42.740Z,98982.97
2018-05-09T13:17:45.219Z,98994.52
2018-05-09T13:21:47.738Z,99007.84
2018-05-09T13:25:50.279Z,99003.05
2018-05-09T13:29:52.766Z,99005.63
2018-05-09T13:34:12.952Z,99001.95
2018-05-09T13:38:15.436Z,98995.22
2018-05-09T13:42:17.923Z,98984.53
2018-05-09T13:46:20.463Z,98983.34
2018-05-09T13:50:22.925Z,98982.66
2018-05-09T13:54:25.435Z,98995.44
2018-05-09T13:58:27.893Z,98994.88
2018-05-09T14:02:30.382Z,98982.14
2018-05-09T14:06:32.907Z,98996.89
2018-05-09T14:10:35.403Z,98993.09
2018-05-09T14:14:37.889Z,98989.09
2018-05-09T14:18:40.373Z,98979.30
2018-05-09T14:22:42.884Z,98969.81
2018-05-09T14:26:45.372Z,98969.09
2018-05-09T14:30:48.172Z,98963.69
2018-05-09T14:34:50.653Z,98950.52
2018-05-09T14:38:53.164Z,98940.86
2018-05-09T14:42:55.678Z,98953.09
2018-05-09T14:46:58.147Z,98947.42
2018-05-09T14:51:00.633Z,98947.66
2018-05-09T14:55:03.279Z,98944.42
2018-05-09T14:59:07.705Z,98933.41
2018-05-09T15:03:10.191Z,98940.55
2018-05-09T15:07:12.770Z,98937.90
2018-05-09T15:11:15.291Z,98933.45
2018-05-09T15:15:17.765Z,98931.95
2018-05-09T15:19:20.238Z,98932.44
2018-05-09T15:23:22.719Z,98930.83
2018-05-09T15:27:25.289Z,98928.28
2018-05-09T15:31:27.819Z,98911.67
2018-05-09T15:35:30.303Z,98905.67
2018-05-09T15:39:32.839Z,98904.41
2018-05-09T15:43:35.320Z,98899.81
2018-05-09T15:47:37.805Z,98899.35
2018-05-09T15:51:40.397Z,98898.11
2018-05-09T15:55:42.855Z,98907.73
2018-05-09T15:59:45.346Z,98908.48
2018-05-09T16:03:47.831Z,98904.62
2018-05-09T16:07:50.319Z,98909.19
2018-05-09T16:16:31.040Z,98914.62
2018-05-09T16:20:37.519Z,98921.13
2018-05-09T16:24:42.928Z,98925.63
2018-05-09T16:28:45.716Z,98934.14
2018-05-09T16:32:49.108Z,98930.30
2018-05-09T16:36:53.377Z,98929.95
2018-05-09T16:41:01.549Z,98921.98
2018-05-09T16:49:29.312Z,98935.50
2018-05-09T16:53:32.669Z,98933.47
2018-05-09T16:57:35.789Z,98940.64
2018-05-09T17:01:39.341Z,98933.45
2018-05-09T17:05:42.582Z,98932.52
2018-05-09T17:09:45.185Z,98926.69
2018-05-09T17:13:47.774Z,98931.85
2018-05-09T17:17:50.366Z,98939.55
2018-05-09T17:22:10.440Z,98941.32
2018-05-09T17:26:12.999Z,98937.29
2018-05-09T17:30:15.587Z,98945.12
2018-05-09T17:34:18.199Z,98939.08
2018-05-09T17:38:20.844Z,98948.87
2018-05-09T17:42:23.459Z,98956.97
2018-05-09T17:46:26.023Z,98959.42
2018-05-09T17:54:56.357Z,98955.57
2018-05-09T17:58:59.100Z,98951.73
2018-05-09T18:03:01.576Z,98955.52
2018-05-09T18:07:04.236Z,98959.82
2018-05-09T18:11:06.748Z,98956.22
2018-05-09T18:15:09.313Z,98960.98
2018-05-09T18:19:11.881Z,98973.08
2018-05-09T18:23:14.436Z,98970.59
2018-05-09T18:27:16.955Z,98966.64
2018-05-09T18:31:19.572Z,98967.88
2018-05-09T18:35:22.138Z,98968.08
2018-05-09T18:39:24.758Z,98965.19
2018-05-09T18:43:27.347Z,98955.53
2018-05-09T18:47:29.949Z,98953.59
2018-05-09T18:51:32.515Z,98957.93
2018-05-09T18:55:35.134Z,98968.34
2018-05-09T18:59:37.897Z,98960.05
2018-05-09T19:03:40.423Z,98955.77
2018-05-09T19:07:43.110Z,98962.55
2018-05-09T19:11:45.683Z,98962.78
2018-05-09T19:15:51.548Z,98963.86
2018-05-09T19:19:54.147Z,98966.41
2018-05-09T19:23:57.744Z,98968.33
2018-05-09T19:28:01.394Z,98975.48
2018-05-09T19:32:03.964Z,98975.87
2018-05-09T19:36:06.436Z,98980.02
2018-05-09T19:40:10.590Z,98983.38
2018-05-09T19:44:13.182Z,98992.35
2018-05-09T19:48:18.429Z,98992.17
2018-05-09T19:52:21.819Z,98986.46
2018-05-09T19:56:24.350Z,98985.09
2018-05-09T20:00:27.755Z,98992.48
2018-05-09T20:04:30.303Z,98990.83
2018-05-09T20:08:32.900Z,98995.48
2018-05-09T20:12:35.338Z,98990.39
2018-05-09T20:16:38.275Z,98993.68
2018-05-09T20:20:40.771Z,98999.27
2018-05-09T20:24:43.257Z,99000.33
2018-05-09T20:28:51.406Z,99013.42
2018-05-09T20:32:53.862Z,99014.64
2018-05-09T20:36:56.412Z,99019.92
2018-05-09T20:40:58.926Z,99021.12
2018-05-09T20:45:01.436Z,99019.03
2018-05-09T20:49:03.923Z,99016.91
2018-05-09T20:53:06.441Z,99021.98
2018-05-09T20:57:08.936Z,99019.95
2018-05-09T21:01:23.385Z,99020.55
2018-05-09T21:05:25.879Z,99026.83
2018-05-09T21:09:28.353Z,99023.04
2018-05-09T21:13:30.861Z,99031.27
2018-05-09T21:17:33.350Z,99040.84
2018-05-09T21:21:35.838Z,99045.88
2018-05-09T21:25:38.333Z,99052.70
2018-05-09T21:29:40.815Z,99058.25
2018-05-09T21:33:43.287Z,99066.48
2018-05-09T21:37:45.773Z,99059.12
2018-05-09T21:41:48.257Z,99064.80
2018-05-09T21:45:50.751Z,99050.52
2018-05-09T21:49:53.229Z,99053.52
2018-05-09T21:53:55.735Z,99049.22
2018-05-09T21:57:58.226Z,99037.74
2018-05-09T22:02:00.710Z,99043.40
2018-05-09T22:06:03.267Z,99041.00
2018-05-09T22:10:06.716Z,99037.59
2018-05-09T22:14:09.205Z,99032.39
2018-05-09T22:18:11.696Z,99044.59
2018-05-09T22:22:14.195Z,99036.00
2018-05-09T22:26:16.701Z,99040.99
2018-05-09T22:30:19.179Z,99034.14
2018-05-09T22:34:21.671Z,99037.02
2018-05-09T22:38:24.151Z,99034.95
2018-05-09T22:42:26.642Z,99038.23
2018-05-09T22:46:29.135Z,99029.23
2018-05-09T22:50:31.612Z,99027.61
2018-05-09T22:54:34.121Z,99027.79
2018-05-09T22:58:36.575Z,99023.11
2018-05-09T23:02:39.058Z,99023.63
2018-05-09T23:06:41.514Z,99039.37
2018-05-09T23:10:44.002Z,99033.69
2018-05-09T23:14:46.454Z,99020.95
2018-05-09T23:18:48.954Z,99029.62
2018-05-09T23:22:51.526Z,99029.81
2018-05-09T23:26:54.030Z,99038.11
2018-05-09T23:30:56.519Z,99029.86
2018-05-09T23:34:59.038Z,99032.89
2018-05-09T23:39:01.587Z,99039.97
2018-05-09T23:43:04.090Z,99026.61
2018-05-09T23:47:06.581Z,99024.67
2018-05-09T23:51:09.052Z,99029.64
2018-05-09T23:55:11.577Z,99035.09
2018-05-09T23:59:14.034Z,99032.53
